Date,TemperatureHighF,TemperatureAvgF,TemperatureLowF,DewpointHighF,DewpointAvgF,DewpointLowF,HumidityHigh,HumidityAvg,HumidityLow,PressureMaxIn,PressureMinIn,WindSpeedMaxMPH,WindSpeedAvgMPH,GustSpeedMaxMPH,PrecipitationSumIn
2013-1-1,40,36,27,32,25,14,78,63,49,29.74,29.59,15,3,16,0.02
2013-1-2,32,26,21,21,16,11,74,62,52,29.91,29.73,15,3,15,0.00
2013-1-3,32,25,21,21,18,16,86,74,50,29.94,29.80,10,2,10,0.00
2013-1-4,39,31,23,26,23,18,94,71,49,29.83,29.69,19,2,19,0.00
2013-1-5,44,34,27,28,23,21,92,66,44,30.02,29.73,14,2,14,0.00
2013-1-6,47,36,32,37,32,26,99,84,55,29.98,29.75,11,2,11,0.00
2013-1-7,46,36,27,36,28,21,100,76,40,30.15,29.78,13,2,13,0.00
2013-1-8,50,38,27,41,34,28,100,87,52,30.21,30.11,16,2,17,0.00
2013-1-9,49,41,29,46,37,29,100,88,68,30.16,29.90,11,2,13,0.00
2013-1-10,49,41,33,36,27,21,78,57,35,30.30,29.97,13,2,13,0.00
2013-1-11,48,40,31,44,35,26,96,83,70,30.29,29.89,10,1,10,0.37
2013-1-12,48,44,43,41,38,37,81,78,75,29.95,29.83,12,2,13,0.14
2013-1-13,49,44,40,42,38,35,81,78,72,29.95,29.81,10,3,10,0.02
2013-1-14,58,49,36,56,43,32,98,79,66,30.04,29.73,12,3,13,0.08
2013-1-15,39,37,34,36,32,29,98,83,70,30.10,29.96,10,2,10,0.15
2013-1-16,37,35,33,35,30,28,98,82,79,29.99,29.54,12,2,12,0.85
2013-1-17,43,38,33,37,30,24,98,73,52,29.87,29.67,15,2,15,0.00
2013-1-18,34,26,20,26,13,8,74,57,37,30.24,29.76,16,3,18,0.00
2013-1-19,49,40,22,41,31,16,89,69,51,30.17,29.73,23,7,24,0.00
2013-1-20,56,44,29,38,27,11,83,53,21,29.77,29.48,25,5,25,0.00
2013-1-21,33,27,20,29,18,11,100,68,43,29.85,29.57,13,2,13,0.00
2013-1-22,26,19,11,26,7,-6,100,56,37,29.91,29.55,18,4,20,0.00
2013-1-23,20,13,9,4,1,-6,70,53,39,29.99,29.89,15,3,17,0.00
2013-1-24,23,14,6,11,5,0,100,63,34,30.11,29.87,20,4,20,0.00
2013-1-25,24,17,10,21,10,4,100,73,40,30.14,29.80,11,2,12,0.00
2013-1-26,26,20,15,18,13,4,100,73,46,30.09,29.77,17,4,17,0.00
2013-1-27,34,21,10,21,12,8,100,67,32,30.25,30.09,13,1,15,0.00
2013-1-28,35,29,20,33,25,14,99,82,57,30.24,29.77,13,2,13,0.18
2013-1-29,47,38,34,43,35,29,97,86,78,29.94,29.75,10,1,10,0.04
2013-1-30,55,50,41,45,40,35,78,69,60,29.89,29.26,23,6,25,0.00
2013-1-31,57,45,28,50,28,11,92,51,33,29.51,28.89,34,6,34,0.23
2013-2-1,32,28,22,16,11,4,59,46,33,29.96,29.51,17,4,22,0.00
2013-2-2,29,24,17,24,13,8,100,61,43,30.05,29.82,16,3,16,0.00
2013-2-3,31,25,19,26,21,14,100,86,55,29.82,29.53,10,1,10,0.03
2013-2-4,32,26,21,26,14,8,100,60,38,29.74,29.54,21,3,21,0.00
2013-2-5,30,28,25,31,27,14,100,96,60,29.74,29.66,10,1,10,0.01
2013-2-6,40,32,28,33,22,8,98,67,38,30.10,29.67,16,3,16,0.03
2013-2-7,33,27,22,26,13,4,85,54,36,30.27,30.09,12,1,12,0.00
2013-2-8,34,32,24,35,27,21,99,83,77,30.11,29.31,20,2,24,0.46
2013-2-9,28,24,18,26,18,8,100,75,50,30.05,29.43,28,4,28,0.00
2013-2-10,37,23,13,26,14,4,100,67,32,30.23,30.05,13,2,16,0.09
2013-2-11,46,38,26,35,32,26,100,77,62,30.10,29.44,17,2,17,1.28
2013-2-12,46,39,29,36,30,26,97,70,48,29.73,29.48,15,2,16,0.00
2013-2-13,47,34,24,35,27,23,100,78,43,29.70,29.44,10,1,11,0.00
2013-2-14,47,36,27,35,28,23,98,75,40,29.77,29.46,10,2,11,0.04
2013-2-15,48,39,32,42,33,24,95,79,66,29.81,29.70,15,3,15,0.00
2013-2-16,40,34,27,37,29,23,100,81,57,29.72,29.44,15,4,16,0.01
2013-2-17,32,24,15,28,11,4,100,57,30,29.67,29.34,23,6,24,0.01
2013-2-18,35,23,16,16,10,8,69,54,33,29.97,29.66,20,4,20,0.00
2013-2-19,47,40,26,43,32,16,100,74,61,29.97,29.44,18,4,18,0.26
2013-2-20,39,31,23,35,18,11,88,58,41,29.70,29.45,21,4,21,0.00
2013-2-21,35,27,21,21,15,11,76,60,43,30.02,29.68,21,5,21,0.00
2013-2-22,39,31,23,32,26,18,97,79,54,30.14,29.99,19,2,19,0.00
2013-2-23,42,38,35,37,32,26,98,81,68,30.05,29.55,13,2,15,0.33
2013-2-24,45,38,31,41,32,26,99,80,64,29.69,29.48,16,4,16,0.01
2013-2-25,50,37,25,36,30,24,100,76,40,30.00,29.69,10,2,10,0.01
2013-2-26,44,38,36,38,35,29,98,87,64,30.09,29.69,15,1,15,0.12
2013-2-27,48,44,36,41,34,28,96,69,58,29.70,29.30,17,2,20,1.22
2013-2-28,49,42,37,45,37,32,95,85,69,29.40,29.32,8,1,9,0.29
2013-3-1,46,40,33,38,32,28,96,75,53,29.52,29.34,13,3,13,0.00
2013-3-2,42,36,31,33,28,24,99,70,52,29.52,29.44,17,4,17,0.00
2013-3-3,38,33,29,32,25,21,100,72,49,29.47,29.41,16,4,16,0.00
2013-3-4,43,34,27,24,22,18,76,61,41,29.61,29.46,22,5,22,0.00
2013-3-5,51,38,29,33,27,23,87,64,37,29.80,29.61,15,4,15,0.00
2013-3-6,42,38,34,39,36,32,98,90,72,29.77,29.61,25,4,27,0.07
2013-3-7,37,33,31,36,28,24,98,83,72,29.79,29.63,25,5,25,0.40
2013-3-8,38,33,30,36,26,23,98,74,67,29.90,29.70,15,4,16,0.44
2013-3-9,55,40,29,36,28,23,99,66,29,30.08,29.89,14,3,15,0.50
2013-3-10,48,36,25,39,31,21,98,81,64,30.18,30.07,7,2,10,0.01
2013-3-11,53,45,37,49,41,32,95,86,63,30.10,29.90,13,3,14,0.00
2013-3-12,52,50,44,49,39,32,95,67,50,29.91,29.50,20,6,21,0.69
2013-3-13,53,43,31,43,31,23,95,66,38,29.66,29.57,15,3,15,0.00
2013-3-14,38,34,29,32,16,8,87,48,29,29.68,29.60,19,5,22,0.00
2013-3-15,45,36,27,31,19,8,65,48,29,29.71,29.50,20,4,22,0.00
2013-3-16,40,34,29,33,26,21,98,73,51,29.65,29.54,12,2,12,0.05
2013-3-17,38,32,24,31,20,11,100,64,42,30.05,29.65,15,2,15,0.03
2013-3-18,39,32,23,33,19,11,97,59,37,30.17,29.80,14,2,14,0.05
2013-3-19,40,36,33,38,28,24,96,73,60,29.80,29.42,16,3,17,0.95
2013-3-20,48,37,28,33,22,16,96,56,32,29.64,29.54,18,2,18,0.00
2013-3-21,37,31,25,32,28,23,99,87,59,29.60,29.39,13,2,13,0.04
2013-3-22,44,34,24,24,21,16,87,59,35,29.61,29.45,17,3,17,0.04
2013-3-23,48,38,28,24,21,16,84,53,32,29.66,29.55,22,4,22,0.00
2013-3-24,48,37,26,31,24,21,86,59,36,29.71,29.49,14,2,14,0.00
2013-3-25,42,37,34,38,32,28,97,84,65,29.50,29.21,19,2,19,0.11
2013-3-26,54,41,34,35,31,24,99,69,34,29.61,29.32,14,2,14,0.00
2013-3-27,54,42,30,31,27,18,96,59,29,29.71,29.59,15,2,16,0.00
2013-3-28,52,43,34,35,32,29,91,66,46,29.86,29.69,15,4,15,0.00
2013-3-29,59,47,38,35,30,24,74,52,29,29.92,29.84,16,3,16,0.00
2013-3-30,58,45,30,39,30,21,100,61,23,29.95,29.86,14,2,15,0.00
2013-3-31,54,45,34,45,36,28,95,71,47,29.91,29.43,18,3,18,0.15
2013-4-1,58,47,37,52,36,14,94,66,35,29.65,29.42,16,4,16,0.09
2013-4-2,45,37,27,21,14,11,69,39,24,29.82,29.65,20,3,21,0.01
2013-4-3,47,38,28,16,14,11,56,36,23,30.03,29.81,18,4,20,0.00
2013-4-4,48,38,25,36,23,14,86,54,32,30.16,29.88,16,4,16,0.00
2013-4-5,65,48,40,41,30,16,95,57,18,29.88,29.52,15,4,15,0.00
2013-4-6,52,41,34,32,18,4,86,43,15,30.10,29.73,16,4,18,0.00
2013-4-7,52,44,34,47,38,31,98,82,57,30.09,29.81,24,6,24,0.00
2013-4-8,69,54,42,51,43,31,93,67,37,29.91,29.77,13,3,13,0.00
2013-4-9,82,63,48,58,42,35,91,51,22,29.84,29.73,19,3,19,0.00
2013-4-10,73,58,50,56,49,39,94,75,48,29.84,29.63,19,3,19,0.18
2013-4-11,63,53,46,54,42,33,93,69,49,29.86,29.59,13,2,13,0.14
2013-4-12,47,43,40,42,34,28,94,71,60,29.86,29.49,19,3,20,0.71
2013-4-13,60,46,37,45,36,28,94,69,39,29.77,29.50,14,4,15,0.11
2013-4-14,59,50,44,49,33,26,93,53,30,30.02,29.76,19,3,19,0.00
2013-4-15,56,47,38,42,33,28,93,61,40,30.18,30.01,11,2,12,0.00
2013-4-16,61,52,41,56,47,35,93,84,71,30.20,29.96,19,5,19,0.00
2013-4-17,69,58,49,50,40,29,92,55,25,30.11,29.93,14,3,14,0.01
2013-4-18,60,52,42,50,43,32,92,73,48,30.20,29.94,17,3,17,0.00
2013-4-19,67,58,54,63,40,33,88,51,40,29.94,29.52,28,7,28,0.06
2013-4-20,61,53,47,49,30,23,90,42,30,30.05,29.49,19,3,21,0.23
2013-4-21,57,44,35,33,25,18,77,48,24,30.42,30.05,15,4,15,0.00
2013-4-22,58,46,33,39,33,26,96,65,33,30.47,30.28,14,2,16,0.00
2013-4-23,48,43,40,46,40,32,94,89,72,30.28,29.86,16,4,16,0.00
2013-4-24,63,50,41,51,39,24,92,68,35,29.87,29.69,20,5,20,0.00
2013-4-25,67,55,46,49,32,21,92,45,20,30.07,29.69,17,4,17,0.02
2013-4-26,68,53,38,49,35,21,92,54,29,30.21,30.06,12,2,12,0.00
2013-4-27,69,53,41,48,35,23,91,55,18,30.25,30.12,12,2,12,0.00
2013-4-28,64,53,43,50,36,23,91,55,29,30.16,30.04,13,3,13,0.00
2013-4-29,61,55,52,50,47,38,91,75,49,30.08,30.03,13,2,13,0.00
2013-4-30,66,56,44,51,37,21,92,55,19,30.16,30.02,13,2,13,0.00
2013-5-1,67,54,40,48,42,28,92,66,38,30.30,30.12,12,2,12,0.00
2013-5-2,70,55,40,55,39,24,91,57,35,30.30,30.16,11,2,11,0.00
2013-5-3,67,54,45,49,43,36,91,67,32,30.29,30.17,13,2,15,0.00
2013-5-4,67,52,41,48,38,23,91,62,39,30.17,30.08,13,2,13,0.00
2013-5-5,66,50,40,47,40,26,91,70,37,30.12,30.05,13,2,13,0.00
2013-5-6,70,55,44,53,44,29,92,69,50,30.10,29.97,9,2,9,0.00
2013-5-7,75,59,45,63,46,23,89,64,30,30.01,29.93,10,2,10,0.00
2013-5-8,66,59,53,50,34,24,73,40,25,29.95,29.83,12,2,15,0.23
2013-5-9,66,58,52,62,33,18,87,42,19,29.84,29.71,10,1,10,0.10
2013-5-10,78,64,51,67,43,16,89,50,17,29.86,29.75,11,2,11,0.03
2013-5-11,65,60,58,55,30,14,82,34,16,29.75,29.53,13,3,13,0.49
2013-5-12,72,62,52,60,30,14,89,32,17,29.72,29.48,21,2,21,0.03
2013-5-13,60,51,41,35,30,24,78,45,28,29.87,29.72,15,2,15,0.00
2013-5-14,62,50,37,45,35,24,93,63,26,29.93,29.85,11,2,11,0.00
2013-5-15,63,55,44,58,46,32,90,75,43,29.87,29.52,16,3,16,0.00
2013-5-16,77,63,54,62,39,14,90,45,15,29.65,29.51,15,2,17,0.00
2013-5-17,74,61,50,50,43,36,89,54,29,30.02,29.64,13,1,13,0.00
2013-5-18,69,58,47,58,44,28,92,61,33,30.17,30.01,13,1,13,0.08
2013-5-19,58,56,55,48,26,14,74,33,17,30.17,30.01,11,2,11,0.27
2013-5-20,77,65,57,72,34,8,89,38,8,30.01,29.81,11,2,11,0.00
2013-5-21,80,69,60,74,41,-13,87,47,3,29.84,29.71,12,2,12,0.00
2013-5-22,78,65,57,73,37,4,100,48,10,29.79,29.72,10,2,10,0.03
2013-5-23,73,66,63,73,58,8,100,85,11,29.79,29.64,18,5,18,0.18
2013-5-24,69,58,47,62,26,-6,94,37,5,29.69,29.52,16,3,16,0.54
2013-5-25,50,46,44,48,28,14,96,53,26,29.75,29.63,18,4,19,1.00
2013-5-26,67,54,45,47,41,36,95,66,34,29.99,29.71,23,2,23,0.01
2013-5-27,73,58,43,54,42,31,95,62,24,30.08,29.97,13,2,13,0.00
2013-5-28,72,58,49,59,32,4,92,44,10,30.09,29.97,11,1,11,0.43
2013-5-29,75,65,57,71,37,-13,92,50,4,29.98,29.87,9,2,9,0.45
2013-5-30,92,75,62,69,63,59,96,69,38,30.02,29.91,10,2,10,0.00
2013-5-31,92,76,63,69,63,61,96,69,38,30.01,29.87,10,2,10,0.00
2013-6-1,85,73,63,68,64,62,96,76,52,29.91,29.80,13,3,13,0.00
2013-6-2,79,70,63,67,63,62,97,80,60,29.80,29.67,15,4,15,0.00
2013-6-3,76,68,64,70,65,54,98,91,64,29.71,29.66,8,2,9,0.38
2013-6-4,78,66,55,54,46,39,83,51,27,29.92,29.70,13,2,15,0.00
2013-6-5,78,64,52,55,47,39,92,58,26,30.07,29.92,9,1,10,0.00
2013-6-6,74,64,55,64,54,46,98,74,41,30.01,29.87,10,2,11,0.00
2013-6-7,62,60,58,61,58,56,98,94,84,29.87,29.46,13,1,13,2.29
2013-6-8,78,66,55,66,60,54,98,84,60,29.88,29.37,15,2,15,2.78
2013-6-9,81,70,59,66,58,54,97,70,41,30.05,29.88,10,1,12,0.00
2013-6-10,74,65,61,66,62,59,96,91,73,30.01,29.70,12,1,12,1.37
2013-6-11,81,71,65,70,66,58,96,84,58,29.70,29.46,12,2,12,0.54
2013-6-12,78,69,60,58,53,49,82,58,37,29.69,29.52,16,3,19,0.00
2013-6-13,65,61,56,60,57,53,95,87,75,29.67,29.31,14,2,17,0.60
2013-6-14,75,60,53,59,53,49,96,81,46,29.68,29.31,16,2,17,0.62
2013-6-15,83,69,56,60,53,41,94,63,27,29.86,29.68,13,1,17,0.00
2013-6-16,79,68,57,66,60,51,93,75,40,29.83,29.63,10,2,10,0.00
2013-6-17,86,74,64,68,64,61,95,74,48,29.78,29.69,13,2,14,0.00
2013-6-18,83,70,62,69,64,60,96,83,51,29.78,29.68,13,1,13,0.20
2013-6-19,82,67,58,60,54,41,95,67,29,29.99,29.71,13,2,13,0.00
2013-6-20,80,67,55,60,54,49,95,67,38,30.14,29.99,12,2,12,0.00
2013-6-21,81,70,59,59,55,49,92,63,35,30.18,30.10,13,2,13,0.00
2013-6-22,83,70,60,64,59,54,95,71,38,30.14,30.01,11,2,12,0.00
2013-6-23,85,74,63,71,65,58,92,75,54,30.08,29.94,12,2,12,0.00
2013-6-24,95,80,70,73,68,60,96,71,35,29.94,29.83,13,1,13,0.00
2013-6-25,92,80,69,71,67,62,87,65,38,29.86,29.68,14,1,14,0.00
2013-6-26,89,79,73,70,67,64,87,67,45,29.73,29.63,11,2,11,0.00
2013-6-27,86,76,71,72,70,67,95,80,59,29.69,29.47,13,2,13,0.02
2013-6-28,85,76,72,72,70,68,95,83,63,29.47,29.37,16,3,16,0.00
2013-6-29,83,74,68,71,68,66,95,84,64,29.58,29.35,12,2,13,0.01
2013-6-30,80,72,68,73,70,67,97,92,79,29.80,29.58,11,2,11,0.01
2013-7-1,77,73,71,74,71,70,97,94,87,29.94,29.78,13,2,13,0.36
2013-7-2,81,74,71,73,71,68,96,90,74,30.06,29.94,12,3,13,0.01
2013-7-3,84,75,69,74,71,67,97,88,68,30.14,30.05,12,2,12,0.01
2013-7-4,89,78,71,75,72,69,97,83,59,30.14,30.05,10,2,10,0.01
2013-7-5,91,79,70,75,71,68,95,78,56,30.11,29.97,7,2,15,0.00
2013-7-6,92,82,73,75,72,69,93,74,49,30.03,29.90,9,1,9,0.00
2013-7-7,91,82,74,75,72,69,93,74,52,29.95,29.81,10,1,10,0.00
2013-7-8,90,80,71,72,68,65,88,68,45,29.92,29.82,10,2,10,0.00
2013-7-9,87,78,69,73,70,65,92,77,52,29.97,29.87,10,1,11,0.02
2013-7-10,87,78,72,75,72,70,94,82,63,29.89,29.69,12,2,13,0.00
2013-7-11,84,76,72,75,71,66,94,84,62,29.78,29.67,7,1,7,0.10
2013-7-12,77,72,67,70,67,64,96,85,74,29.96,29.77,13,1,13,0.68
2013-7-13,83,74,68,76,72,67,97,92,79,30.15,29.96,7,1,7,0.07
2013-7-14,91,80,72,77,72,69,97,80,52,30.21,30.10,12,1,12,0.00
2013-7-15,96,84,74,74,71,68,91,68,42,30.12,30.02,10,1,10,0.00
2013-7-16,96,83,72,72,67,60,89,63,33,30.08,30.00,9,1,9,0.00
2013-7-17,96,83,72,72,70,61,91,67,33,30.09,29.94,8,1,8,0.00
2013-7-18,99,85,75,76,72,66,88,68,39,29.95,29.84,8,1,9,0.00
2013-7-19,95,85,78,78,75,72,92,75,54,29.86,29.69,9,2,9,0.00
2013-7-20,94,82,74,76,72,69,94,75,51,29.71,29.62,7,2,9,0.23
2013-7-21,90,78,72,73,67,60,93,71,41,29.84,29.70,9,1,9,0.00
2013-7-22,87,77,71,75,71,68,95,85,61,29.84,29.69,8,1,8,0.02
2013-7-23,87,78,70,76,72,68,97,85,63,29.69,29.44,9,2,9,0.45
2013-7-24,87,76,69,74,67,57,97,75,51,29.77,29.46,9,1,9,0.01
2013-7-25,70,64,61,60,57,51,95,80,64,29.89,29.77,9,2,9,0.18
2013-7-26,80,68,61,66,62,59,97,85,54,29.90,29.79,9,1,9,0.20
2013-7-27,84,73,64,69,65,60,97,79,47,29.95,29.83,9,2,9,0.00
2013-7-28,82,72,65,71,67,61,97,85,52,29.87,29.79,9,1,9,0.00
2013-7-29,88,77,69,75,67,54,97,75,45,29.93,29.81,9,1,9,0.03
2013-7-30,86,72,60,62,56,52,93,61,33,30.03,29.92,9,1,9,0.00
2013-7-31,84,72,61,64,60,55,94,69,40,30.03,29.91,8,1,8,0.00
2013-8-1,78,70,66,69,65,62,95,88,68,29.91,29.69,11,1,11,0.21
2013-8-2,87,75,68,69,64,54,96,74,38,29.78,29.63,10,1,12,0.06
2013-8-3,81,71,67,68,65,61,90,81,57,29.77,29.71,9,1,9,0.02
2013-8-4,85,72,63,64,58,50,96,66,33,29.78,29.69,17,1,17,0.00
2013-8-5,82,68,57,58,51,42,88,58,27,29.91,29.78,14,2,14,0.00
2013-8-6,83,70,60,69,58,53,100,69,40,29.99,29.88,13,1,13,0.00
2013-8-7,82,71,61,66,61,55,90,72,49,30.03,29.95,13,2,13,0.00
2013-8-8,79,72,67,72,68,64,95,88,77,29.95,29.89,11,3,13,0.17
2013-8-9,82,75,72,74,71,69,93,89,77,29.90,29.68,16,3,16,0.01
2013-8-10,86,76,67,71,62,56,94,66,40,29.89,29.70,11,1,11,0.00
2013-8-11,84,71,59,63,55,44,85,60,30,29.99,29.88,9,1,9,0.00
2013-8-12,80,72,67,70,67,61,95,86,68,29.90,29.78,7,0,7,0.08
2013-8-13,75,70,67,72,68,65,100,95,78,29.79,29.57,7,0,8,0.50
2013-8-14,77,68,60,67,54,47,96,66,38,29.86,29.57,15,2,15,0.03
2013-8-15,82,67,53,61,52,41,96,64,27,30.00,29.85,10,1,10,0.00
2013-8-16,83,69,57,64,56,47,97,66,34,30.05,29.95,9,1,9,0.00
2013-8-17,85,70,58,62,57,50,99,67,32,30.16,30.04,8,1,8,0.00
2013-8-18,79,69,61,63,59,52,90,73,40,30.11,29.96,8,0,9,0.02
2013-8-19,82,70,59,63,59,55,90,71,47,29.97,29.88,10,1,10,0.00
2013-8-20,90,74,62,68,62,54,100,71,31,30.01,29.88,10,1,10,0.00
2013-8-21,90,76,66,71,64,54,100,72,32,30.06,29.91,9,1,10,0.00
2013-8-22,83,73,69,73,69,66,95,89,69,29.92,29.72,10,1,10,0.23
2013-8-23,82,73,65,69,62,54,96,71,41,29.94,29.71,13,1,13,0.00
2013-8-24,84,69,60,62,56,46,91,66,27,30.17,29.94,13,1,13,0.00
2013-8-25,85,69,56,67,56,49,100,68,31,30.26,30.08,10,1,10,0.00
2013-8-26,81,72,67,68,62,55,89,73,54,30.08,29.78,11,2,11,0.07
2013-8-27,85,74,69,71,68,66,95,83,56,29.78,29.66,12,1,12,0.11
2013-8-28,88,76,67,76,68,65,100,79,49,29.78,29.70,8,1,9,0.00
2013-8-29,80,71,65,68,65,61,94,82,59,29.89,29.74,10,1,12,0.00
2013-8-30,83,72,64,69,66,60,92,83,62,29.88,29.73,10,2,10,0.00
2013-8-31,84,75,70,72,69,67,93,85,66,29.74,29.68,9,3,10,0.00
2013-9-1,81,75,72,74,71,69,93,89,78,29.74,29.68,10,2,10,0.06
2013-9-2,78,74,70,74,71,68,96,92,86,29.69,29.57,7,1,7,0.05
2013-9-3,82,72,66,72,66,56,100,82,51,29.72,29.56,10,1,11,0.30
2013-9-4,85,70,58,65,56,44,96,67,28,29.85,29.71,9,1,9,0.00
2013-9-5,80,68,58,63,54,40,93,63,32,29.96,29.75,15,1,15,0.00
2013-9-6,76,62,53,49,45,40,82,56,29,30.09,29.95,10,1,11,0.00
2013-9-7,78,65,52,61,51,42,88,64,32,29.95,29.75,10,1,10,0.00
2013-9-8,83,71,61,63,56,43,93,63,36,29.91,29.65,12,2,12,0.00
2013-9-9,72,63,51,58,48,42,90,62,35,30.10,29.90,11,1,11,0.00
2013-9-10,79,71,62,71,66,58,94,87,72,30.03,29.94,12,2,12,0.00
2013-9-11,90,78,70,75,71,68,96,81,55,30.00,29.87,10,2,11,0.00
2013-9-12,81,74,69,73,70,67,96,90,72,29.87,29.55,12,2,13,0.88
2013-9-13,78,69,60,71,62,50,100,81,49,29.65,29.47,13,2,14,0.05
2013-9-14,71,60,53,52,49,46,82,68,43,29.92,29.64,14,2,16,0.00
2013-9-15,74,60,47,58,50,45,100,75,41,30.05,29.92,8,1,8,0.00
2013-9-16,74,63,58,61,55,45,99,78,46,30.04,29.86,12,1,12,0.00
2013-9-17,67,54,47,45,39,35,88,58,33,30.24,30.04,15,2,17,0.00
2013-9-18,74,57,45,55,46,39,100,71,36,30.17,30.01,9,1,9,0.00
2013-9-19,78,62,49,58,52,45,100,75,34,30.02,29.91,9,1,9,0.00
2013-9-20,80,65,52,61,57,52,100,79,41,29.96,29.84,9,1,9,0.00
2013-9-21,77,68,56,68,64,56,100,90,70,29.85,29.55,16,3,16,0.00
2013-9-22,72,64,55,68,55,41,100,75,43,29.71,29.49,14,2,15,0.82
2013-9-23,67,57,50,46,42,38,73,59,39,29.85,29.71,14,2,15,0.00
2013-9-24,73,57,46,50,44,38,90,66,34,29.85,29.69,12,1,13,0.00
2013-9-25,76,59,47,59,49,43,100,73,33,29.80,29.72,9,0,9,0.00
2013-9-26,72,59,51,60,54,50,100,83,47,29.91,29.75,9,1,10,0.00
2013-9-27,66,58,49,60,52,49,100,81,57,30.10,29.91,10,1,11,0.00
2013-9-28,75,62,53,60,54,50,100,78,45,30.17,30.05,12,1,12,0.00
2013-9-29,75,59,49,63,49,33,100,76,24,30.06,29.89,10,1,11,0.00
2013-9-30,75,60,48,61,54,47,100,85,39,29.91,29.81,9,1,9,0.00
2013-10-1,83,65,52,64,55,49,100,76,36,29.85,29.76,10,1,10,0.00
2013-10-2,84,68,56,63,59,56,100,76,42,29.84,29.76,13,1,13,0.00
2013-10-3,78,66,54,65,55,43,100,72,34,29.99,29.84,7,1,7,0.00
2013-10-4,84,69,60,69,63,59,100,86,53,29.92,29.85,10,1,10,0.00
2013-10-5,79,67,63,65,64,62,100,90,58,29.95,29.85,8,1,9,0.00
2013-10-6,67,64,63,66,64,63,100,100,98,29.96,29.90,7,1,7,0.01
2013-10-7,75,68,61,71,67,53,100,94,74,29.90,29.69,18,3,18,0.10
2013-10-8,68,59,51,54,45,40,95,64,39,30.13,29.79,17,2,17,0.00
2013-10-9,65,57,51,50,47,42,83,70,53,30.22,30.11,14,1,14,0.00
2013-10-10,66,59,54,59,55,48,98,87,76,30.11,29.91,17,2,17,0.03
2013-10-11,68,63,60,60,58,54,95,85,74,29.93,29.85,15,2,15,0.00
2013-10-12,71,62,54,57,50,35,93,67,28,30.12,29.91,17,2,17,0.09
2013-10-13,65,57,50,53,50,47,93,80,55,30.22,30.10,16,2,16,0.00
2013-10-14,64,54,46,53,48,44,100,83,55,30.18,30.07,8,1,8,0.00
2013-10-15,74,55,44,57,48,41,100,81,34,30.07,29.93,8,1,8,0.00
2013-10-16,70,60,51,61,56,50,100,88,67,29.93,29.75,7,0,7,0.00
2013-10-17,75,64,60,64,62,60,100,93,66,29.75,29.56,12,2,12,0.00
2013-10-18,69,61,51,64,50,42,100,71,39,29.77,29.51,15,2,15,0.01
2013-10-19,66,55,44,59,47,41,100,78,42,29.81,29.57,9,1,10,0.02
2013-10-20,64,54,46,59,42,35,100,67,35,29.85,29.56,8,1,14,0.01
2013-10-21,67,53,41,49,41,33,93,67,33,29.95,29.81,10,1,10,0.00
2013-10-22,67,56,48,56,48,42,100,76,52,29.81,29.57,10,1,10,0.00
2013-10-23,52,48,42,46,39,33,91,72,51,29.61,29.41,11,1,11,0.02
2013-10-24,55,45,38,38,32,26,94,61,33,29.77,29.52,15,1,15,0.00
2013-10-25,53,44,36,36,31,28,89,63,41,29.99,29.76,15,1,15,0.00
2013-10-26,56,46,34,38,34,28,96,63,40,29.99,29.72,15,2,17,0.00
2013-10-27,59,49,41,40,34,29,78,56,34,29.89,29.65,13,1,13,0.00
2013-10-28,62,49,35,38,34,31,96,59,31,30.11,29.89,12,1,12,0.00
2013-10-29,54,46,38,38,34,31,85,64,43,30.21,30.11,8,1,10,0.00
2013-10-30,60,50,39,54,45,35,99,82,64,30.14,30.01,7,0,9,0.00
2013-10-31,65,58,48,62,56,48,100,95,80,30.03,29.68,12,2,12,0.00
2013-11-1,65,62,57,64,60,57,100,96,77,29.68,29.40,19,4,19,0.05
2013-11-2,67,57,50,57,49,40,100,77,39,29.57,29.44,7,1,7,0.00
2013-11-3,51,46,36,46,35,21,97,67,47,30.19,29.57,17,3,17,0.00
2013-11-4,46,37,33,28,22,18,77,54,33,30.43,30.19,15,2,15,0.00
2013-11-5,56,44,34,41,35,28,90,71,49,30.45,30.29,8,1,8,0.00
2013-11-6,60,54,42,56,49,41,100,84,56,30.30,29.90,10,2,10,0.00
2013-11-7,63,55,42,62,53,29,100,93,57,29.90,29.57,13,2,17,0.19
2013-11-8,49,42,37,33,28,23,86,58,37,29.97,29.69,16,2,16,0.00
2013-11-9,49,42,32,38,29,24,83,61,38,30.05,29.82,10,1,10,0.00
2013-11-10,61,50,42,40,35,28,77,57,30,29.82,29.61,19,2,19,0.00
2013-11-11,54,48,40,36,30,24,60,49,33,29.97,29.77,15,2,15,0.00
2013-11-12,51,38,30,38,28,18,100,68,53,30.01,29.72,15,4,15,0.15
2013-11-13,38,31,26,21,17,11,71,56,36,30.09,30.00,15,2,17,0.00
2013-11-14,52,39,28,26,20,16,73,48,23,30.01,29.94,13,1,14,0.01
2013-11-15,55,44,35,43,35,26,100,72,45,30.05,29.97,8,1,9,0.00
2013-11-16,58,47,39,47,42,36,100,86,57,30.13,30.00,10,1,10,0.02
2013-11-17,61,55,42,61,55,42,100,100,100,30.06,29.63,7,1,10,0.03
2013-11-18,66,58,51,60,44,26,100,64,29,29.63,29.44,16,2,16,0.16
2013-11-19,51,43,34,29,26,23,63,49,39,30.09,29.55,17,4,17,0.00
2013-11-20,44,34,26,23,19,14,87,54,29,30.36,30.09,19,2,19,0.00
2013-11-21,50,43,26,43,34,21,88,70,54,30.38,30.18,9,1,9,0.00
2013-11-22,54,52,47,54,51,42,100,98,84,30.18,29.68,9,1,9,0.07
2013-11-23,53,43,29,51,28,11,95,56,33,29.77,29.66,17,4,17,0.01
2013-11-24,30,25,22,14,6,-6,55,40,21,30.07,29.70,20,6,22,0.00
2013-11-25,37,28,19,21,14,8,75,55,29,30.22,30.07,12,2,12,0.00
2013-11-26,52,39,33,52,28,18,100,67,42,30.10,29.61,12,2,13,0.32
2013-11-27,61,49,35,61,48,24,100,97,65,29.61,29.06,23,5,23,0.62
2013-11-28,36,30,23,24,17,11,76,56,37,30.22,29.44,19,3,23,0.01
2013-11-29,41,31,24,23,19,16,83,60,41,30.47,30.21,11,1,11,0.00
2013-11-30,40,30,21,36,21,14,94,70,43,30.51,30.14,9,1,9,0.00
2013-12-1,51,43,39,47,41,36,100,93,75,30.14,29.78,8,1,8,0.19
2013-12-2,52,40,34,43,39,35,100,95,67,29.78,29.65,6,0,7,0.00
2013-12-3,54,41,33,44,36,33,100,87,49,29.76,29.64,9,1,9,0.00
2013-12-4,53,42,31,47,38,31,100,89,57,29.93,29.76,8,0,8,0.00
2013-12-5,59,54,47,59,54,47,100,100,96,29.93,29.75,12,2,12,0.00
2013-12-6,56,46,36,56,46,36,100,99,79,29.90,29.70,15,4,15,0.46
2013-12-7,41,36,31,36,31,18,100,84,60,30.25,29.83,16,3,16,0.31
2013-12-8,33,30,26,31,24,18,100,77,58,30.34,30.14,11,1,11,0.00
2013-12-9,44,37,30,44,37,31,100,100,100,30.14,29.70,15,2,15,0.29
2013-12-10,36,32,27,35,31,21,100,97,73,29.85,29.59,12,1,13,0.07
2013-12-11,36,28,23,21,18,16,77,66,47,30.06,29.85,12,2,13,0.00
2013-12-12,29,23,17,18,12,8,82,60,38,30.08,29.90,15,2,15,0.00
2013-12-13,36,26,18,23,14,8,78,57,41,30.08,29.87,15,1,16,0.00
2013-12-14,41,26,21,40,24,18,100,92,72,30.26,29.60,15,2,15,0.01
2013-12-15,45,36,31,45,33,23,100,88,68,29.60,29.20,21,3,21,1.90
2013-12-16,32,26,18,24,15,8,82,60,39,29.97,29.57,15,2,15,0.01
2013-12-17,33,25,18,33,23,14,100,91,63,29.99,29.66,13,2,13,0.00
2013-12-18,37,28,22,26,24,21,100,83,54,29.91,29.65,14,2,15,0.00
2013-12-19,48,35,23,35,27,21,96,72,43,29.93,29.81,17,2,17,0.25
2013-12-20,49,43,34,46,38,31,100,84,57,29.89,29.77,12,3,12,0.09
2013-12-21,58,50,45,53,49,45,100,95,75,29.82,29.73,16,4,17,0.00
2013-12-22,60,56,53,59,55,53,100,98,88,29.81,29.67,20,6,20,0.00
2013-12-23,57,52,40,57,52,38,100,100,90,29.95,29.69,16,2,16,0.43
2013-12-24,40,35,26,38,26,14,100,70,49,30.12,29.84,20,4,20,0.00
2013-12-25,26,22,18,16,12,8,79,61,47,32.74,29.35,13,2,13,0.00
2013-12-26,40,30,23,31,24,14,97,80,56,32.73,20.38,12,1,12,0.01
2013-12-27,43,31,23,26,21,16,96,68,37,32.72,16.29,12,1,12,0.00
2013-12-28,54,40,28,39,32,24,100,75,39,30.04,29.86,18,3,18,0.00
2013-12-29,53,43,39,53,40,32,100,91,71,29.86,29.16,20,2,20,1.47
2013-12-30,44,35,21,43,29,14,100,81,55,29.93,29.45,13,2,15,0.00
2013-12-31,31,24,18,24,16,11,83,68,48,30.01,29.81,13,2,15,0.00
2014-1-1,33,26,18,23,15,11,76,61,49,30.17,30.01,9,1,9,0.00
2014-1-2,31,26,16,28,25,16,100,95,68,30.02,29.40,17,4,17,0.00